createdAt,value
2019-02-17T00:01:23.308Z,51.17
2019-02-17T00:03:53.788Z,49.93
2019-02-17T00:06:24.028Z,51.57
2019-02-17T00:08:54.272Z,54.97
2019-02-17T00:11:24.456Z,49.80
2019-02-17T00:13:54.773Z,53.97
2019-02-17T00:16:25.039Z,55.63
2019-02-17T00:18:55.549Z,56.70
2019-02-17T00:21:25.779Z,66.23
2019-02-17T00:23:56.036Z,58.80
2019-02-17T00:26:26.460Z,59.67
2019-02-17T00:28:59.516Z,64.00
2019-02-17T00:31:28.624Z,56.80
2019-02-17T00:33:58.906Z,53.20
2019-02-17T00:36:29.175Z,53.37
2019-02-17T00:38:59.392Z,50.27
2019-02-17T00:41:29.584Z,57.43
2019-02-17T00:43:59.816Z,55.73
2019-02-17T00:46:30.123Z,52.20
2019-02-17T00:49:00.311Z,53.90
2019-02-17T00:51:30.649Z,53.57
2019-02-17T00:54:00.859Z,55.97
2019-02-17T00:56:31.085Z,60.73
2019-02-17T00:59:09.587Z,55.10
2019-02-17T01:01:33.595Z,53.03
2019-02-17T01:04:03.838Z,52.00
2019-02-17T01:06:34.057Z,49.57
2019-02-17T01:09:12.975Z,59.63
2019-02-17T01:11:44.991Z,52.50
2019-02-17T01:14:15.178Z,52.10
2019-02-17T01:16:45.394Z,59.20
2019-02-17T01:19:15.612Z,64.03
2019-02-17T01:21:45.836Z,61.87
2019-02-17T01:24:16.089Z,55.67
2019-02-17T01:26:46.287Z,57.40
2019-02-17T01:29:20.392Z,52.30
2019-02-17T01:31:48.610Z,52.13
2019-02-17T01:34:18.935Z,54.43
2019-02-17T01:36:49.289Z,60.23
2019-02-17T01:39:19.503Z,54.93
2019-02-17T01:41:49.713Z,49.30
2019-02-17T01:44:20.007Z,55.33
2019-02-17T01:46:50.528Z,55.53
2019-02-17T01:49:20.757Z,59.07
2019-02-17T01:51:50.976Z,59.73
2019-02-17T01:54:21.195Z,53.10
2019-02-17T01:56:51.525Z,52.80
2019-02-17T01:59:30.362Z,56.43
2019-02-17T02:01:53.960Z,55.47
2019-02-17T02:04:24.333Z,51.20
2019-02-17T02:06:54.716Z,57.67
2019-02-17T02:09:24.906Z,61.47
2019-02-17T02:11:55.113Z,56.90
2019-02-17T02:14:25.341Z,60.13
2019-02-17T02:16:55.551Z,47.57
2019-02-17T02:19:25.817Z,57.53
2019-02-17T02:21:56.204Z,54.13
2019-02-17T02:24:26.433Z,54.07
2019-02-17T02:26:56.610Z,61.30
2019-02-17T02:29:26.855Z,62.23
2019-02-17T02:31:57.104Z,57.63
2019-02-17T02:34:27.325Z,51.63
2019-02-17T02:36:57.666Z,65.00
2019-02-17T02:39:27.868Z,59.20
2019-02-17T02:41:58.200Z,60.57
2019-02-17T02:44:28.416Z,58.87
2019-02-17T02:46:58.628Z,61.00
2019-02-17T02:49:28.852Z,60.13
2019-02-17T02:51:59.156Z,60.37
2019-02-17T02:54:29.330Z,63.47
2019-02-17T02:56:59.606Z,59.57
2019-02-17T02:59:29.820Z,62.50
2019-02-17T03:02:00.317Z,64.00
2019-02-17T03:04:30.612Z,62.03
2019-02-17T03:07:03.560Z,56.33
2019-02-17T03:09:33.825Z,56.33
2019-02-17T03:12:04.210Z,53.43
2019-02-17T03:14:34.502Z,54.53
2019-02-17T03:17:04.742Z,54.13
2019-02-17T03:19:35.007Z,55.07
2019-02-17T03:22:05.270Z,56.30
2019-02-17T03:24:35.470Z,62.53
2019-02-17T03:27:05.888Z,59.37
2019-02-17T03:29:36.173Z,72.33
2019-02-17T03:32:06.368Z,70.93
2019-02-17T03:34:36.685Z,51.50
2019-02-17T03:37:06.954Z,58.40
2019-02-17T03:39:37.159Z,58.50
2019-02-17T03:42:07.472Z,60.90
2019-02-17T03:44:37.748Z,58.93
2019-02-17T03:47:08.016Z,55.43
2019-02-17T03:49:38.261Z,61.23
2019-02-17T03:52:08.501Z,53.47
2019-02-17T03:54:38.725Z,58.63
2019-02-17T03:57:09.088Z,54.63
2019-02-17T03:59:39.361Z,58.33
2019-02-17T04:02:09.987Z,64.73
2019-02-17T04:04:40.249Z,52.13
2019-02-17T04:07:10.451Z,54.33
2019-02-17T04:09:40.669Z,58.40
2019-02-17T04:12:11.016Z,56.30
2019-02-17T04:14:41.263Z,56.33
2019-02-17T04:17:11.461Z,50.90
2019-02-17T04:19:41.666Z,58.73
2019-02-17T04:22:11.871Z,59.33
2019-02-17T04:24:42.129Z,53.90
2019-02-17T04:27:12.403Z,57.17
2019-02-17T04:29:42.632Z,49.90
2019-02-17T04:32:12.877Z,54.97
2019-02-17T04:34:44.045Z,60.83
2019-02-17T04:37:14.346Z,58.07
2019-02-17T04:39:44.638Z,59.27
2019-02-17T04:42:14.938Z,53.87
2019-02-17T04:44:45.168Z,55.10
2019-02-17T04:47:15.400Z,59.13
2019-02-17T04:49:45.883Z,61.17
2019-02-17T04:52:16.211Z,57.97
2019-02-17T04:54:46.425Z,62.33
2019-02-17T04:57:16.714Z,57.43
2019-02-17T04:59:46.980Z,54.93
2019-02-17T05:02:17.564Z,53.53
2019-02-17T05:04:48.833Z,53.73
2019-02-17T05:07:19.226Z,59.83
2019-02-17T05:09:49.502Z,59.93
2019-02-17T05:12:19.740Z,57.77
2019-02-17T05:14:49.989Z,54.53
2019-02-17T05:17:20.244Z,63.50
2019-02-17T05:19:50.534Z,57.80
2019-02-17T05:22:20.976Z,58.60
2019-02-17T05:24:51.191Z,53.40
2019-02-17T05:27:21.415Z,54.37
2019-02-17T05:29:51.632Z,52.33
2019-02-17T05:32:22.849Z,51.93
2019-02-17T05:34:53.107Z,52.60
2019-02-17T05:37:24.719Z,50.53
2019-02-17T05:39:55.138Z,53.53
2019-02-17T05:42:26.049Z,57.27
2019-02-17T05:44:56.330Z,53.33
2019-02-17T05:47:26.541Z,52.00
2019-02-17T05:49:56.776Z,74.33
2019-02-17T05:52:27.064Z,172.00
2019-02-17T05:54:57.372Z,66.43
2019-02-17T05:57:28.524Z,70.00
2019-02-17T05:59:58.854Z,59.20
2019-02-17T06:02:29.431Z,57.97
2019-02-17T06:04:59.641Z,57.80
2019-02-17T06:07:30.022Z,56.57
2019-02-17T06:10:00.263Z,54.27
2019-02-17T06:12:43.643Z,54.13
2019-02-17T06:15:15.557Z,55.17
2019-02-17T06:17:48.112Z,56.27
2019-02-17T06:20:18.391Z,57.87
2019-02-17T06:22:48.692Z,56.13
2019-02-17T06:25:18.923Z,54.50
2019-02-17T06:27:51.318Z,53.83
2019-02-17T06:30:21.593Z,57.17
2019-02-17T06:32:51.852Z,56.90
2019-02-17T06:35:22.073Z,55.67
2019-02-17T06:37:52.306Z,56.97
2019-02-17T06:40:22.572Z,60.67
2019-02-17T06:42:52.845Z,55.83
2019-02-17T06:45:23.051Z,57.50
2019-02-17T06:47:53.254Z,58.30
2019-02-17T06:50:23.504Z,57.07
2019-02-17T06:52:53.942Z,54.33
2019-02-17T06:55:38.165Z,59.73
2019-02-17T06:58:08.358Z,62.07
2019-02-17T07:00:47.757Z,60.40
2019-02-17T07:03:18.877Z,58.90
2019-02-17T07:06:13.173Z,56.80
2019-02-17T07:08:43.565Z,63.00
2019-02-17T07:11:13.771Z,61.30
2019-02-17T07:13:43.998Z,61.23
2019-02-17T07:16:14.267Z,57.87
2019-02-17T07:18:44.508Z,55.20
2019-02-17T07:21:14.755Z,65.23
2019-02-17T07:23:45.006Z,53.83
2019-02-17T07:26:17.114Z,54.70
2019-02-17T07:28:47.356Z,59.47
2019-02-17T07:31:17.602Z,55.03
2019-02-17T07:33:48.807Z,54.40
2019-02-17T07:36:19.075Z,56.30
2019-02-17T07:38:49.335Z,57.07
2019-02-17T07:41:19.586Z,67.13
2019-02-17T07:43:50.042Z,60.37
2019-02-17T07:46:20.280Z,54.33
2019-02-17T07:48:50.597Z,56.57
2019-02-17T07:51:20.830Z,58.27
2019-02-17T07:53:51.092Z,57.47
2019-02-17T07:56:21.324Z,54.07
2019-02-17T07:58:51.780Z,59.43
2019-02-17T08:01:22.052Z,61.57
2019-02-17T08:03:52.486Z,56.50
2019-02-17T08:06:22.770Z,57.10
2019-02-17T08:08:53.068Z,56.90
2019-02-17T08:11:23.290Z,57.43
2019-02-17T08:13:53.545Z,60.97
2019-02-17T08:16:25.324Z,61.37
2019-02-17T08:18:55.582Z,61.20
2019-02-17T08:21:25.802Z,67.43
2019-02-17T08:23:55.998Z,58.03
2019-02-17T08:26:26.219Z,54.77
2019-02-17T08:28:56.466Z,57.50
2019-02-17T08:31:26.999Z,52.83
2019-02-17T08:33:57.265Z,50.47
2019-02-17T08:36:27.449Z,52.27
2019-02-17T08:38:57.770Z,53.40
2019-02-17T08:41:28.016Z,51.87
2019-02-17T08:43:58.295Z,55.03
2019-02-17T08:46:28.497Z,51.13
2019-02-17T08:48:59.007Z,50.57
2019-02-17T08:51:29.223Z,44.63
2019-02-17T08:53:59.730Z,50.33
2019-02-17T08:56:29.979Z,54.97
2019-02-17T08:59:00.210Z,51.17
2019-02-17T09:01:30.420Z,52.80
2019-02-17T09:04:01.207Z,47.73
2019-02-17T09:06:31.531Z,50.60
2019-02-17T09:09:01.853Z,51.97
2019-02-17T09:11:33.396Z,51.03
2019-02-17T09:14:03.645Z,46.67
2019-02-17T09:16:33.974Z,42.77
2019-02-17T09:19:04.312Z,44.43
2019-02-17T09:21:34.503Z,40.00
2019-02-17T09:24:04.733Z,40.30
2019-02-17T09:26:35.067Z,39.63
2019-02-17T09:29:05.410Z,37.57
2019-02-17T09:31:35.619Z,37.23
2019-02-17T09:34:06.089Z,36.37
2019-02-17T09:36:36.318Z,37.07
2019-02-17T09:39:14.329Z,35.10
2019-02-17T09:41:44.605Z,36.73
2019-02-17T09:44:14.900Z,34.00
2019-02-17T09:46:45.135Z,34.43
2019-02-17T09:49:15.342Z,39.63
2019-02-17T09:51:45.796Z,38.77
2019-02-17T09:54:16.047Z,31.07
2019-02-17T09:56:46.272Z,32.00
2019-02-17T09:59:18.918Z,35.20
2019-02-17T10:01:49.202Z,36.00
2019-02-17T10:04:19.663Z,31.47
2019-02-17T10:06:49.875Z,39.57
2019-02-17T10:09:20.287Z,36.70
2019-02-17T10:11:50.614Z,37.90
2019-02-17T10:14:20.808Z,33.90
2019-02-17T10:16:51.032Z,37.17
2019-02-17T10:19:21.389Z,30.50
2019-02-17T10:21:51.631Z,27.23
2019-02-17T10:24:21.873Z,30.23
2019-02-17T10:26:52.175Z,31.47
2019-02-17T10:29:22.948Z,32.93
2019-02-17T10:31:53.694Z,31.40
2019-02-17T10:34:24.044Z,29.43
2019-02-17T10:36:54.247Z,30.20
2019-02-17T10:39:24.578Z,28.70
2019-02-17T10:41:54.986Z,28.03
2019-02-17T10:44:25.314Z,29.53
2019-02-17T10:46:58.454Z,30.50
2019-02-17T10:49:28.670Z,28.80
2019-02-17T10:51:58.878Z,31.43
2019-02-17T10:54:29.181Z,29.90
2019-02-17T10:56:59.439Z,26.17
2019-02-17T10:59:29.813Z,28.07
2019-02-17T11:02:00.136Z,26.33
2019-02-17T11:04:30.689Z,27.17
2019-02-17T11:07:00.960Z,26.43
2019-02-17T11:09:31.197Z,27.63
2019-02-17T11:12:01.382Z,30.60
2019-02-17T11:14:31.725Z,27.63
2019-02-17T11:17:02.005Z,29.13
2019-02-17T11:19:32.260Z,30.70
2019-02-17T11:22:02.504Z,29.23
2019-02-17T11:24:32.698Z,30.23
2019-02-17T11:27:02.957Z,32.70
2019-02-17T11:29:33.202Z,31.10
2019-02-17T11:32:03.415Z,29.77
2019-02-17T11:34:33.839Z,32.07
2019-02-17T11:37:11.155Z,35.27
2019-02-17T11:39:41.480Z,28.63
2019-02-17T11:42:11.751Z,29.57
2019-02-17T11:44:41.978Z,32.73
2019-02-17T11:47:12.258Z,32.67
2019-02-17T11:49:42.482Z,31.07
2019-02-17T11:52:12.904Z,32.40
2019-02-17T11:54:43.179Z,32.47
2019-02-17T11:57:13.637Z,35.60
2019-02-17T11:59:43.960Z,32.20
2019-02-17T12:02:24.457Z,33.07
2019-02-17T12:04:47.071Z,30.77
2019-02-17T12:07:17.375Z,30.33
2019-02-17T12:09:48.697Z,31.20
2019-02-17T12:12:22.597Z,29.03
2019-02-17T12:14:52.866Z,29.60
2019-02-17T12:17:23.115Z,28.93
2019-02-17T12:19:55.303Z,31.80
2019-02-17T12:22:33.712Z,30.13
2019-02-17T12:25:29.109Z,27.80
2019-02-17T12:28:24.350Z,28.17
2019-02-17T12:30:54.655Z,32.97
2019-02-17T12:33:26.815Z,28.17
2019-02-17T12:35:59.296Z,32.60
2019-02-17T12:38:29.560Z,28.83
2019-02-17T12:41:00.001Z,31.67
2019-02-17T12:43:33.902Z,34.03
2019-02-17T12:46:05.694Z,33.33
2019-02-17T12:48:35.926Z,31.57
2019-02-17T12:51:06.867Z,31.87
2019-02-17T12:53:44.093Z,30.83
2019-02-17T12:56:14.626Z,32.37
2019-02-17T12:58:47.734Z,32.17
2019-02-17T13:01:18.363Z,29.67
2019-02-17T13:04:02.056Z,33.07
2019-02-17T13:06:37.269Z,27.20
2019-02-17T13:09:09.379Z,31.50
2019-02-17T13:11:39.644Z,28.37
2019-02-17T13:14:09.909Z,25.13
2019-02-17T13:16:40.154Z,30.40
2019-02-17T13:19:10.588Z,29.73
2019-02-17T13:23:13.163Z,30.10
2019-02-17T13:25:28.123Z,28.60
2019-02-17T13:27:58.830Z,27.30
2019-02-17T13:30:29.114Z,28.13
2019-02-17T13:33:38.801Z,29.80
2019-02-17T13:36:06.438Z,24.80
2019-02-17T13:38:36.673Z,25.90
2019-02-17T13:41:06.866Z,27.53
2019-02-17T13:43:37.241Z,25.63
2019-02-17T13:46:07.838Z,26.33
2019-02-17T13:48:38.175Z,25.50
2019-02-17T13:51:13.548Z,27.40
2019-02-17T13:53:50.869Z,29.53
2019-02-17T13:56:21.246Z,31.43
2019-02-17T13:58:51.699Z,34.63
2019-02-17T14:01:21.914Z,31.20
2019-02-17T14:03:52.145Z,26.20
2019-02-17T14:06:22.412Z,27.33
2019-02-17T14:08:52.828Z,28.10
2019-02-17T14:11:23.085Z,26.87
2019-02-17T14:13:54.489Z,29.10
2019-02-17T14:16:24.794Z,27.60
2019-02-17T14:18:55.036Z,29.27
2019-02-17T14:21:25.265Z,29.87
2019-02-17T14:23:55.455Z,26.53
2019-02-17T14:26:25.649Z,27.67
2019-02-17T14:28:55.966Z,29.67
2019-02-17T14:31:26.219Z,30.87
2019-02-17T14:33:58.634Z,28.43
2019-02-17T14:36:28.427Z,32.93
2019-02-17T14:38:58.734Z,30.97
2019-02-17T14:41:28.990Z,29.40
2019-02-17T14:43:59.265Z,32.23
2019-02-17T14:46:29.480Z,32.73
2019-02-17T14:48:59.939Z,38.43
2019-02-17T14:51:30.233Z,31.60
2019-02-17T14:54:00.476Z,30.57
2019-02-17T14:56:30.733Z,30.67
2019-02-17T14:59:02.622Z,30.43
2019-02-17T15:01:32.883Z,33.10
2019-02-17T15:04:08.756Z,28.67
2019-02-17T15:06:35.371Z,32.63
2019-02-17T15:09:08.205Z,29.57
2019-02-17T15:11:38.511Z,35.50
2019-02-17T15:14:08.897Z,32.13
2019-02-17T15:16:39.240Z,33.23
2019-02-17T15:19:10.589Z,36.13
2019-02-17T15:21:41.014Z,30.60
2019-02-17T15:24:11.311Z,35.17
2019-02-17T15:26:41.545Z,34.03
2019-02-17T15:29:12.366Z,32.17
2019-02-17T15:31:43.510Z,32.03
2019-02-17T15:34:18.729Z,34.90
2019-02-17T15:36:46.079Z,32.17
2019-02-17T15:39:16.535Z,35.70
2019-02-17T15:41:46.868Z,32.97
2019-02-17T15:44:17.296Z,36.93
2019-02-17T15:46:47.511Z,37.13
2019-02-17T15:49:17.935Z,41.97
2019-02-17T15:51:48.280Z,49.50
2019-02-17T15:54:18.679Z,49.67
2019-02-17T15:56:48.933Z,56.13
2019-02-17T15:59:20.491Z,58.20
2019-02-17T16:01:55.758Z,61.03
2019-02-17T16:04:30.362Z,57.93
2019-02-17T16:07:07.737Z,48.03
2019-02-17T16:09:47.739Z,45.73
2019-02-17T16:12:32.469Z,49.70
2019-02-17T16:15:21.347Z,45.53
2019-02-17T16:17:53.189Z,45.70
2019-02-17T16:20:58.625Z,43.57
2019-02-17T16:23:33.767Z,49.30
2019-02-17T16:26:09.088Z,49.47
2019-02-17T16:28:39.453Z,41.00
2019-02-17T16:31:09.962Z,46.20
2019-02-17T16:33:46.470Z,50.27
2019-02-17T16:36:17.465Z,40.83
2019-02-17T16:38:48.100Z,47.10
2019-02-17T16:41:22.870Z,46.17
2019-02-17T16:43:53.251Z,45.67
2019-02-17T16:46:23.789Z,40.37
2019-02-17T16:48:54.117Z,42.57
2019-02-17T16:51:29.913Z,41.87
2019-02-17T16:54:01.550Z,46.93
2019-02-17T16:56:31.832Z,43.80
2019-02-17T16:59:03.971Z,42.60
2019-02-17T17:01:34.255Z,40.27
2019-02-17T17:04:05.228Z,43.50
2019-02-17T17:06:35.526Z,48.77
2019-02-17T17:09:07.805Z,51.67
2019-02-17T17:11:38.436Z,50.63
2019-02-17T17:14:09.183Z,52.33
2019-02-17T17:16:39.821Z,47.37
2019-02-17T17:19:33.846Z,50.07
2019-02-17T17:22:47.129Z,72.07
2019-02-17T17:25:36.849Z,47.30
2019-02-17T17:28:14.482Z,67.60
2019-02-17T17:30:48.029Z,63.20
2019-02-17T17:33:26.933Z,65.10
2019-02-17T17:36:02.839Z,51.13
2019-02-17T17:38:33.194Z,58.00
2019-02-17T17:41:03.875Z,48.50
2019-02-17T17:46:23.658Z,46.23
2019-02-17T17:48:54.039Z,52.53
2019-02-17T17:51:24.932Z,50.97
2019-02-17T17:53:55.184Z,44.10
2019-02-17T17:56:25.438Z,50.30
2019-02-17T17:58:55.726Z,55.47
2019-02-17T18:01:31.227Z,51.67
2019-02-17T18:04:46.497Z,56.87
2019-02-17T18:07:20.127Z,50.53
2019-02-17T18:09:50.574Z,53.50
2019-02-17T18:12:21.270Z,50.43
2019-02-17T18:14:51.633Z,53.67
2019-02-17T18:17:21.923Z,54.33
2019-02-17T18:19:52.332Z,53.97
2019-02-17T18:22:23.071Z,52.60
2019-02-17T18:24:55.034Z,52.87
2019-02-17T18:27:26.249Z,49.13
2019-02-17T18:29:56.626Z,50.17
2019-02-17T18:32:26.922Z,51.07
2019-02-17T18:34:57.225Z,49.57
2019-02-17T18:37:27.696Z,51.53
2019-02-17T18:39:58.685Z,50.53
2019-02-17T18:42:29.051Z,51.33
2019-02-17T18:44:59.311Z,48.97
2019-02-17T18:47:36.259Z,53.13
2019-02-17T18:50:10.905Z,54.50
2019-02-17T18:52:42.214Z,51.07
2019-02-17T18:55:12.933Z,49.47
2019-02-17T18:57:49.907Z,48.57
2019-02-17T19:00:16.484Z,50.93
2019-02-17T19:02:46.720Z,55.57
2019-02-17T19:05:16.986Z,51.43
2019-02-17T19:07:47.315Z,57.33
2019-02-17T19:10:17.694Z,51.80
2019-02-17T19:12:48.394Z,56.37
2019-02-17T19:15:18.784Z,51.03
2019-02-17T19:17:49.083Z,56.60
2019-02-17T19:20:22.268Z,55.13
2019-02-17T19:22:54.341Z,57.90
2019-02-17T19:25:25.928Z,57.83
2019-02-17T19:27:56.410Z,57.70
2019-02-17T19:30:26.837Z,62.27
2019-02-17T19:32:57.172Z,57.53
2019-02-17T19:35:27.370Z,57.17
2019-02-17T19:37:59.726Z,57.03
2019-02-17T19:40:30.116Z,54.93
2019-02-17T19:43:03.710Z,53.87
2019-02-17T19:45:37.476Z,53.40
2019-02-17T19:48:09.394Z,53.53
2019-02-17T19:50:39.852Z,54.30
2019-02-17T19:53:10.263Z,56.00
2019-02-17T19:55:40.660Z,52.73
2019-02-17T19:58:11.266Z,52.37
2019-02-17T20:00:41.566Z,54.80
2019-02-17T20:03:29.240Z,50.27
2019-02-17T20:06:01.180Z,54.87
2019-02-17T20:08:31.435Z,53.33
2019-02-17T20:11:01.903Z,56.13
2019-02-17T20:13:34.959Z,48.67
2019-02-17T20:16:05.415Z,53.17
2019-02-17T20:18:35.743Z,55.47
2019-02-17T20:21:06.170Z,58.40
2019-02-17T20:23:36.445Z,54.50
2019-02-17T20:26:06.662Z,53.03
2019-02-17T20:28:43.248Z,54.33
2019-02-17T20:31:09.363Z,59.50
2019-02-17T20:33:39.721Z,52.87
2019-02-17T20:36:10.114Z,49.37
2019-02-17T20:38:40.436Z,52.10
2019-02-17T20:41:10.813Z,57.10
2019-02-17T20:43:41.112Z,56.37
2019-02-17T20:46:11.477Z,55.70
2019-02-17T20:48:41.796Z,50.90
2019-02-17T20:51:12.164Z,48.93
2019-02-17T20:53:42.556Z,50.43
2019-02-17T20:56:12.952Z,52.60
2019-02-17T20:58:43.148Z,47.50
2019-02-17T21:01:13.447Z,50.90
2019-02-17T21:03:43.911Z,52.37
2019-02-17T21:06:14.239Z,59.50
2019-02-17T21:08:44.551Z,88.97
2019-02-17T21:11:14.783Z,62.03
2019-02-17T21:13:45.296Z,54.63
2019-02-17T21:16:15.524Z,55.17
2019-02-17T21:18:45.959Z,53.67
2019-02-17T21:21:16.165Z,51.97
2019-02-17T21:23:46.416Z,54.23
2019-02-17T21:26:16.763Z,55.20
2019-02-17T21:28:47.032Z,51.27
2019-02-17T21:31:17.272Z,53.67
2019-02-17T21:33:47.530Z,54.30
2019-02-17T21:36:23.105Z,51.00
2019-02-17T21:38:50.042Z,56.13
2019-02-17T21:41:20.321Z,51.70
2019-02-17T21:43:50.557Z,56.13
2019-02-17T21:46:20.871Z,51.40
2019-02-17T21:48:51.099Z,53.57
2019-02-17T21:51:21.354Z,52.43
2019-02-17T21:53:52.779Z,49.73
2019-02-17T21:56:23.954Z,51.80
2019-02-17T21:58:54.245Z,53.10
2019-02-17T22:01:24.461Z,55.33
2019-02-17T22:03:54.641Z,55.40
2019-02-17T22:06:33.226Z,51.77
2019-02-17T22:08:56.826Z,51.30
2019-02-17T22:11:27.140Z,48.80
2019-02-17T22:13:57.704Z,58.90
2019-02-17T22:16:27.972Z,52.90
2019-02-17T22:18:58.411Z,55.10
2019-02-17T22:21:28.651Z,52.57
2019-02-17T22:23:58.883Z,51.07
2019-02-17T22:26:29.145Z,51.83
2019-02-17T22:28:59.409Z,56.53
2019-02-17T22:31:29.648Z,61.67
2019-02-17T22:33:59.903Z,52.63
2019-02-17T22:36:31.098Z,55.43
2019-02-17T22:39:01.399Z,56.80
2019-02-17T22:41:32.584Z,58.63
2019-02-17T22:44:02.755Z,56.70
2019-02-17T22:46:34.104Z,52.87
2019-02-17T22:49:04.468Z,56.87
2019-02-17T22:51:35.646Z,54.27
2019-02-17T22:54:06.005Z,54.13
2019-02-17T22:56:36.256Z,56.33
2019-02-17T22:59:06.439Z,57.53
2019-02-17T23:01:36.847Z,57.50
2019-02-17T23:04:07.150Z,57.87
2019-02-17T23:06:37.352Z,60.13
2019-02-17T23:09:08.480Z,64.63
2019-02-17T23:11:39.675Z,58.53
2019-02-17T23:14:10.134Z,59.60
2019-02-17T23:16:40.527Z,56.10
2019-02-17T23:19:10.853Z,57.20
2019-02-17T23:21:41.078Z,52.60
2019-02-17T23:24:11.291Z,52.50
2019-02-17T23:26:41.538Z,57.33
2019-02-17T23:29:11.874Z,59.43
2019-02-17T23:31:42.197Z,64.93
2019-02-17T23:34:12.425Z,50.40
2019-02-17T23:36:42.775Z,61.27
2019-02-17T23:39:13.061Z,58.40
2019-02-17T23:41:43.324Z,61.10
2019-02-17T23:44:13.565Z,60.37
2019-02-17T23:46:43.802Z,56.27
2019-02-17T23:49:14.074Z,60.33
2019-02-17T23:51:44.492Z,57.23
2019-02-17T23:54:14.804Z,60.20
2019-02-17T23:56:45.074Z,63.30
2019-02-17T23:59:15.331Z,64.53
